createdAt,value
2017-09-10T00:00:51.074Z,0
2017-09-10T00:01:51.711Z,0
2017-09-10T00:02:52.649Z,0
2017-09-10T00:03:53.286Z,0
2017-09-10T00:04:53.919Z,0
2017-09-10T00:05:54.558Z,0
2017-09-10T00:06:55.196Z,0
2017-09-10T00:07:55.832Z,0
2017-09-10T00:08:56.468Z,0
2017-09-10T00:09:57.106Z,0
2017-09-10T00:10:57.893Z,0
2017-09-10T00:11:58.529Z,0
2017-09-10T00:12:59.167Z,0
2017-09-10T00:13:59.803Z,0
2017-09-10T00:15:00.443Z,0
2017-09-10T00:16:01.078Z,0
2017-09-10T00:17:01.716Z,0
2017-09-10T00:18:02.349Z,0
2017-09-10T00:19:03.239Z,0
2017-09-10T00:20:03.875Z,0
2017-09-10T00:21:04.511Z,0
2017-09-10T00:22:05.147Z,0
2017-09-10T00:23:05.837Z,0
2017-09-10T00:24:06.522Z,0
2017-09-10T00:25:07.160Z,0
2017-09-10T00:26:07.796Z,0
2017-09-10T00:27:08.432Z,0
2017-09-10T00:28:09.265Z,0
2017-09-10T00:29:09.905Z,0
2017-09-10T00:30:10.538Z,0
2017-09-10T00:31:11.176Z,0
2017-09-10T00:32:11.815Z,0
2017-09-10T00:33:12.447Z,0
2017-09-10T00:34:13.283Z,0
2017-09-10T00:35:13.922Z,0
2017-09-10T00:36:14.558Z,0
2017-09-10T00:37:15.203Z,0
2017-09-10T00:38:15.834Z,0
2017-09-10T00:39:16.469Z,0
2017-09-10T00:40:17.107Z,0
2017-09-10T00:41:17.741Z,0
2017-09-10T00:42:18.581Z,0
2017-09-10T00:43:19.216Z,0
2017-09-10T00:44:19.906Z,0
2017-09-10T00:45:20.539Z,0
2017-09-10T00:46:21.176Z,0
2017-09-10T00:47:21.813Z,0
2017-09-10T00:48:22.452Z,0
2017-09-10T00:49:23.088Z,0
2017-09-10T00:50:23.926Z,0
2017-09-10T00:51:24.564Z,0
2017-09-10T00:52:25.200Z,0
2017-09-10T00:53:25.835Z,0
2017-09-10T00:54:26.470Z,0
2017-09-10T00:55:27.157Z,0
2017-09-10T00:56:27.797Z,0
2017-09-10T00:57:28.431Z,0
2017-09-10T00:58:29.266Z,0
2017-09-10T00:59:29.905Z,0
2017-09-10T01:00:30.541Z,0
2017-09-10T01:01:31.177Z,0
2017-09-10T01:02:31.817Z,0
2017-09-10T01:03:32.452Z,0
2017-09-10T01:04:33.086Z,0
2017-09-10T01:05:33.724Z,0
2017-09-10T01:06:34.360Z,0
2017-09-10T01:07:35.596Z,0
2017-09-10T01:08:36.233Z,0
2017-09-10T01:09:36.817Z,0
2017-09-10T01:10:37.454Z,0
2017-09-10T01:11:38.146Z,0
2017-09-10T01:12:38.782Z,0
2017-09-10T01:13:39.419Z,0
2017-09-10T01:14:40.055Z,0
2017-09-10T01:15:40.893Z,0
2017-09-10T01:16:41.531Z,0
2017-09-10T01:17:42.164Z,0
2017-09-10T01:18:42.801Z,0
2017-09-10T01:19:43.438Z,0
2017-09-10T01:20:44.075Z,0
2017-09-10T01:21:44.711Z,0
2017-09-10T01:22:45.350Z,0
2017-09-10T01:23:46.184Z,0
2017-09-10T01:24:46.822Z,0
2017-09-10T01:25:47.461Z,0
2017-09-10T01:26:48.097Z,0
2017-09-10T01:27:48.684Z,0
2017-09-10T01:28:49.319Z,0
2017-09-10T01:29:49.995Z,0
2017-09-10T01:30:51.586Z,0
2017-09-10T01:31:52.423Z,0
2017-09-10T01:32:53.064Z,0
2017-09-10T01:33:53.754Z,0
2017-09-10T01:34:54.389Z,0
2017-09-10T01:35:55.028Z,0
2017-09-10T01:36:55.664Z,0
2017-09-10T01:37:56.302Z,0
2017-09-10T01:38:56.950Z,0
2017-09-10T01:39:57.877Z,0
2017-09-10T01:40:58.515Z,0
2017-09-10T01:41:59.152Z,0
2017-09-10T01:42:59.785Z,0
2017-09-10T01:44:00.422Z,0
2017-09-10T01:45:01.060Z,0
2017-09-10T01:46:01.694Z,0
2017-09-10T01:47:02.334Z,0
2017-09-10T01:48:02.967Z,0
2017-09-10T01:49:03.804Z,0
2017-09-10T01:50:04.441Z,0
2017-09-10T01:51:05.075Z,0
2017-09-10T01:52:05.715Z,0
2017-09-10T01:53:06.349Z,0
2017-09-10T01:54:06.985Z,0
2017-09-10T01:55:07.623Z,0
2017-09-10T01:56:08.260Z,0
2017-09-10T01:57:09.095Z,0
2017-09-10T01:58:09.781Z,0
2017-09-10T01:59:10.419Z,0
2017-09-10T02:00:11.107Z,0
2017-09-10T02:01:11.742Z,0
2017-09-10T02:02:12.376Z,0
2017-09-10T02:03:13.011Z,0
2017-09-10T02:04:13.655Z,0
2017-09-10T02:05:14.487Z,0
2017-09-10T02:06:15.122Z,0
2017-09-10T02:07:15.762Z,0
2017-09-10T02:08:16.394Z,0
2017-09-10T02:09:17.031Z,0
2017-09-10T02:10:17.666Z,0
2017-09-10T02:11:18.304Z,0
2017-09-10T02:12:18.941Z,0
2017-09-10T02:13:19.780Z,0
2017-09-10T02:14:20.415Z,0
2017-09-10T02:15:21.050Z,0
2017-09-10T02:16:21.692Z,0
2017-09-10T02:17:22.320Z,0
2017-09-10T02:18:22.961Z,0
2017-09-10T02:19:23.595Z,0
2017-09-10T02:20:24.233Z,0
2017-09-10T02:21:24.868Z,0
2017-09-10T02:22:25.707Z,0
2017-09-10T02:23:26.344Z,0
2017-09-10T02:24:26.978Z,0
2017-09-10T02:25:27.615Z,0
2017-09-10T02:26:28.252Z,0
2017-09-10T02:27:28.886Z,0
2017-09-10T02:28:29.521Z,0
2017-09-10T02:29:30.160Z,0
2017-09-10T02:30:30.999Z,0
2017-09-10T02:31:31.633Z,0
2017-09-10T02:32:32.270Z,0
2017-09-10T02:33:32.904Z,0
2017-09-10T02:34:33.539Z,0
2017-09-10T02:35:34.174Z,0
2017-09-10T02:36:34.813Z,0
2017-09-10T02:37:35.451Z,0
2017-09-10T02:38:36.333Z,0
2017-09-10T02:39:36.968Z,0
2017-09-10T02:40:37.602Z,0
2017-09-10T02:41:38.238Z,0
2017-09-10T02:42:38.873Z,0
2017-09-10T02:43:39.512Z,0
2017-09-10T02:44:40.145Z,0
2017-09-10T02:45:40.783Z,0
2017-09-10T02:46:41.568Z,0
2017-09-10T02:47:42.205Z,0
2017-09-10T02:48:42.841Z,0
2017-09-10T02:49:43.527Z,0
2017-09-10T02:50:44.168Z,0
2017-09-10T02:51:44.800Z,0
2017-09-10T02:52:45.435Z,0
2017-09-10T02:53:46.070Z,0
2017-09-10T02:54:46.710Z,0
2017-09-10T02:55:47.547Z,0
2017-09-10T02:56:48.180Z,0
2017-09-10T02:57:48.816Z,0
2017-09-10T02:58:49.453Z,0
2017-09-10T02:59:50.088Z,0
2017-09-10T03:00:50.724Z,0
2017-09-10T03:01:51.363Z,0
2017-09-10T03:02:51.999Z,0
2017-09-10T03:03:52.836Z,0
2017-09-10T03:04:53.474Z,0
2017-09-10T03:05:54.109Z,0
2017-09-10T03:06:54.747Z,0
2017-09-10T03:07:55.379Z,0
2017-09-10T03:08:56.017Z,0
2017-09-10T03:09:56.652Z,0
2017-09-10T03:10:57.288Z,0
2017-09-10T03:11:58.123Z,0
2017-09-10T03:12:58.761Z,0
2017-09-10T03:13:59.397Z,0
2017-09-10T03:15:00.030Z,0
2017-09-10T03:16:00.675Z,0
2017-09-10T03:17:01.303Z,0
2017-09-10T03:18:01.940Z,0
2017-09-10T03:19:02.576Z,0
2017-09-10T03:20:03.412Z,0
2017-09-10T03:21:04.052Z,0
2017-09-10T03:22:04.685Z,0
2017-09-10T03:23:05.325Z,0
2017-09-10T03:24:05.958Z,0
2017-09-10T03:25:06.597Z,0
2017-09-10T03:26:07.230Z,0
2017-09-10T03:27:07.866Z,0
2017-09-10T03:28:08.700Z,0
2017-09-10T03:29:09.342Z,0
2017-09-10T03:30:09.974Z,0
2017-09-10T03:31:10.608Z,0
2017-09-10T03:32:11.247Z,0
2017-09-10T03:33:11.879Z,0
2017-09-10T03:34:12.518Z,0
2017-09-10T03:35:13.151Z,0
2017-09-10T03:36:13.789Z,0
2017-09-10T03:37:14.573Z,0
2017-09-10T03:38:15.209Z,0
2017-09-10T03:39:15.845Z,0
2017-09-10T03:40:16.482Z,0
2017-09-10T03:41:17.120Z,0
2017-09-10T03:42:17.754Z,0
2017-09-10T03:43:18.391Z,0
2017-09-10T03:44:19.028Z,0
2017-09-10T03:45:20.065Z,0
2017-09-10T03:46:20.701Z,0
2017-09-10T03:47:21.339Z,0
2017-09-10T03:48:21.974Z,0
2017-09-10T03:49:22.609Z,0
2017-09-10T03:50:23.247Z,0
2017-09-10T03:51:23.881Z,0
2017-09-10T03:52:24.520Z,0
2017-09-10T03:53:25.303Z,0
2017-09-10T03:54:25.940Z,0
2017-09-10T03:55:26.573Z,0
2017-09-10T03:56:27.215Z,0
2017-09-10T03:57:27.899Z,0
2017-09-10T03:58:28.536Z,0
2017-09-10T03:59:29.171Z,0
2017-09-10T04:00:29.805Z,0
2017-09-10T04:01:30.642Z,0
2017-09-10T04:02:31.279Z,0
2017-09-10T04:03:31.913Z,0
2017-09-10T04:04:32.552Z,0
2017-09-10T04:05:33.187Z,0
2017-09-10T04:06:33.821Z,0
2017-09-10T04:07:34.457Z,0
2017-09-10T04:08:35.094Z,0
2017-09-10T04:09:35.728Z,0
2017-09-10T04:10:36.680Z,0
2017-09-10T04:11:37.299Z,0
2017-09-10T04:12:37.939Z,0
2017-09-10T04:13:38.574Z,0
2017-09-10T04:14:39.209Z,0
2017-09-10T04:15:39.844Z,0
2017-09-10T04:16:40.481Z,0
2017-09-10T04:17:41.118Z,0
2017-09-10T04:18:41.952Z,0
2017-09-10T04:19:42.589Z,0
2017-09-10T04:20:43.225Z,0
2017-09-10T04:21:43.861Z,0
2017-09-10T04:22:44.499Z,0
2017-09-10T04:23:45.134Z,0
2017-09-10T04:24:45.768Z,0
2017-09-10T04:25:46.404Z,0
2017-09-10T04:26:47.338Z,0
2017-09-10T04:27:47.975Z,0
2017-09-10T04:28:48.610Z,0
2017-09-10T04:29:49.245Z,0
2017-09-10T04:30:49.880Z,0
2017-09-10T04:31:50.518Z,0
2017-09-10T04:32:51.151Z,0
2017-09-10T04:33:51.786Z,0
2017-09-10T04:34:52.672Z,0
2017-09-10T04:35:53.306Z,0
2017-09-10T04:36:53.943Z,0
2017-09-10T04:37:54.579Z,0
2017-09-10T04:38:55.214Z,0
2017-09-10T04:39:55.851Z,0
2017-09-10T04:40:56.488Z,0
2017-09-10T04:41:57.125Z,0
2017-09-10T04:42:57.960Z,0
2017-09-10T04:43:58.594Z,0
2017-09-10T04:44:59.229Z,0
2017-09-10T04:45:59.864Z,0
2017-09-10T04:47:00.503Z,0
2017-09-10T04:48:01.140Z,0
2017-09-10T04:49:01.774Z,0
2017-09-10T04:50:02.410Z,0
2017-09-10T04:51:03.045Z,0
2017-09-10T04:52:03.830Z,0
2017-09-10T04:53:04.468Z,0
2017-09-10T04:54:05.104Z,0
2017-09-10T04:55:05.740Z,0
2017-09-10T04:56:06.376Z,0
2017-09-10T04:57:07.013Z,0
2017-09-10T04:58:07.647Z,0
2017-09-10T04:59:08.289Z,0
2017-09-10T05:00:09.175Z,0
2017-09-10T05:01:09.810Z,0
2017-09-10T05:02:10.446Z,0
2017-09-10T05:03:11.080Z,0
2017-09-10T05:04:11.718Z,0
2017-09-10T05:05:12.353Z,0
2017-09-10T05:06:12.987Z,0
2017-09-10T05:07:13.622Z,0
2017-09-10T05:08:14.462Z,0
2017-09-10T05:09:15.097Z,0
2017-09-10T05:10:15.730Z,0
2017-09-10T05:11:16.370Z,0
2017-09-10T05:12:17.004Z,0
2017-09-10T05:13:17.639Z,0
2017-09-10T05:14:18.273Z,0
2017-09-10T05:15:18.913Z,0
2017-09-10T05:16:19.749Z,0
2017-09-10T05:17:20.384Z,0
2017-09-10T05:18:21.021Z,0
2017-09-10T05:19:21.658Z,0
2017-09-10T05:20:22.291Z,0
2017-09-10T05:21:22.927Z,0
2017-09-10T05:22:23.514Z,0
2017-09-10T05:23:24.150Z,0
2017-09-10T05:24:24.787Z,0
2017-09-10T05:25:25.572Z,0
2017-09-10T05:26:26.208Z,0
2017-09-10T05:27:26.842Z,0
2017-09-10T05:28:27.482Z,0
2017-09-10T05:29:28.114Z,0
2017-09-10T05:30:28.750Z,0
2017-09-10T05:31:29.386Z,0
2017-09-10T05:32:30.021Z,0
2017-09-10T05:33:31.006Z,0
2017-09-10T05:34:31.646Z,0
2017-09-10T05:35:32.276Z,0
2017-09-10T05:36:32.910Z,0
2017-09-10T05:37:33.548Z,0
2017-09-10T05:38:34.180Z,0
2017-09-10T05:39:34.816Z,0
2017-09-10T05:40:35.452Z,0
2017-09-10T05:41:36.338Z,0
2017-09-10T05:42:36.977Z,0
2017-09-10T05:43:37.613Z,0
2017-09-10T05:44:38.247Z,0
2017-09-10T05:45:38.881Z,0
2017-09-10T05:46:39.518Z,0
2017-09-10T05:47:40.153Z,0
2017-09-10T05:48:40.789Z,0
2017-09-10T05:49:41.625Z,0
2017-09-10T05:50:42.259Z,0
2017-09-10T05:51:42.896Z,0
2017-09-10T05:52:43.531Z,0
2017-09-10T05:53:44.166Z,0
2017-09-10T05:54:44.802Z,0
2017-09-10T05:55:45.440Z,0
2017-09-10T05:56:46.074Z,0
2017-09-10T05:57:46.914Z,0
2017-09-10T05:58:47.599Z,0
2017-09-10T05:59:48.237Z,0
2017-09-10T06:00:48.874Z,0
2017-09-10T06:01:49.507Z,0
2017-09-10T06:02:50.144Z,0
2017-09-10T06:03:50.779Z,0
2017-09-10T06:04:51.416Z,0
2017-09-10T06:05:52.051Z,0
2017-09-10T06:06:52.885Z,0
2017-09-10T06:07:53.521Z,0
2017-09-10T06:08:54.156Z,0
2017-09-10T06:09:54.793Z,0
2017-09-10T06:10:55.432Z,0
2017-09-10T06:11:56.068Z,0
2017-09-10T06:12:56.703Z,0
2017-09-10T06:13:57.339Z,0
2017-09-10T06:14:58.175Z,0
2017-09-10T06:15:58.811Z,0
2017-09-10T06:16:59.449Z,0
2017-09-10T06:18:00.082Z,0
2017-09-10T06:19:00.717Z,0
2017-09-10T06:20:01.360Z,0
2017-09-10T06:21:01.989Z,0
2017-09-10T06:22:02.624Z,0
2017-09-10T06:23:03.608Z,0
2017-09-10T06:24:04.245Z,0
2017-09-10T06:25:04.881Z,0
2017-09-10T06:26:05.516Z,0
2017-09-10T06:27:06.153Z,0
2017-09-10T06:28:06.790Z,0
2017-09-10T06:29:07.425Z,0
2017-09-10T06:30:08.060Z,0
2017-09-10T06:31:08.898Z,0
2017-09-10T06:32:09.534Z,0
2017-09-10T06:33:10.172Z,0
2017-09-10T06:34:10.808Z,0
2017-09-10T06:35:11.441Z,0
2017-09-10T06:36:12.076Z,0
2017-09-10T06:37:12.716Z,0
2017-09-10T06:38:13.348Z,0
2017-09-10T06:39:13.982Z,0
2017-09-10T06:40:14.766Z,0
2017-09-10T06:41:15.403Z,0
2017-09-10T06:42:16.038Z,0
2017-09-10T06:43:16.673Z,0
2017-09-10T06:44:17.310Z,0
2017-09-10T06:45:17.945Z,0
2017-09-10T06:46:18.580Z,0
2017-09-10T06:47:19.214Z,0
2017-09-10T06:48:20.052Z,0
2017-09-10T06:49:20.687Z,0
2017-09-10T06:50:21.324Z,0
2017-09-10T06:51:21.961Z,0
2017-09-10T06:52:22.598Z,0
2017-09-10T06:53:23.234Z,0
2017-09-10T06:54:23.868Z,0
2017-09-10T06:55:24.504Z,0
2017-09-10T06:56:25.289Z,0
2017-09-10T06:57:25.924Z,0
2017-09-10T06:58:26.564Z,0
2017-09-10T06:59:27.195Z,0
2017-09-10T07:00:27.830Z,0
2017-09-10T07:01:28.469Z,0
2017-09-10T07:02:29.309Z,0
2017-09-10T07:03:29.944Z,0
2017-09-10T07:04:30.831Z,0
2017-09-10T07:05:31.466Z,0
2017-09-10T07:06:32.102Z,0
2017-09-10T07:07:32.737Z,0
2017-09-10T07:08:33.376Z,0
2017-09-10T07:09:34.012Z,0
2017-09-10T07:10:34.649Z,0
2017-09-10T07:11:35.283Z,0
2017-09-10T07:12:36.072Z,0
2017-09-10T07:13:36.710Z,0
2017-09-10T07:14:37.342Z,0
2017-09-10T07:15:37.980Z,0
2017-09-10T07:16:38.613Z,0
2017-09-10T07:17:39.249Z,0
2017-09-10T07:18:39.937Z,0
2017-09-10T07:19:40.571Z,0
2017-09-10T07:20:41.205Z,0
2017-09-10T07:21:41.993Z,0
2017-09-10T07:22:42.630Z,0
2017-09-10T07:23:43.264Z,0
2017-09-10T07:24:43.899Z,0
2017-09-10T07:25:44.536Z,0
2017-09-10T07:26:45.174Z,0
2017-09-10T07:27:45.811Z,0
2017-09-10T07:28:46.444Z,0
2017-09-10T07:29:47.280Z,0
2017-09-10T07:30:47.917Z,0
2017-09-10T07:31:48.554Z,0
2017-09-10T07:32:49.188Z,0
2017-09-10T07:33:49.823Z,0
2017-09-10T07:34:50.459Z,0
2017-09-10T07:35:51.094Z,0
2017-09-10T07:36:51.732Z,0
2017-09-10T07:37:52.568Z,0
2017-09-10T07:38:53.206Z,0
2017-09-10T07:39:53.838Z,0
2017-09-10T07:40:54.475Z,0
2017-09-10T07:41:55.110Z,0
2017-09-10T07:42:55.744Z,0
2017-09-10T07:43:56.381Z,0
2017-09-10T07:44:57.018Z,0
2017-09-10T07:45:57.853Z,0
2017-09-10T07:46:58.488Z,0
2017-09-10T07:47:59.121Z,0
2017-09-10T07:48:59.757Z,0
2017-09-10T07:50:00.392Z,0
2017-09-10T07:51:01.027Z,0
2017-09-10T07:52:01.665Z,0
2017-09-10T07:53:02.299Z,0
2017-09-10T07:54:02.932Z,0
2017-09-10T07:55:03.871Z,0
2017-09-10T07:56:04.504Z,0
2017-09-10T07:57:05.145Z,0
2017-09-10T07:58:05.776Z,0
2017-09-10T07:59:06.413Z,0
2017-09-10T08:00:07.051Z,0
2017-09-10T08:01:07.687Z,0
2017-09-10T08:02:08.320Z,0
2017-09-10T08:03:09.105Z,0
2017-09-10T08:04:09.742Z,0
2017-09-10T08:05:10.382Z,0
2017-09-10T08:06:11.030Z,0
2017-09-10T08:07:11.653Z,0
2017-09-10T08:08:12.287Z,0
2017-09-10T08:09:12.925Z,0
2017-09-10T08:10:13.563Z,0
2017-09-10T08:11:14.447Z,0
2017-09-10T08:12:15.084Z,0
2017-09-10T08:13:15.722Z,0
2017-09-10T08:14:16.359Z,0
2017-09-10T08:15:16.995Z,0
2017-09-10T08:16:17.629Z,0
2017-09-10T08:17:18.266Z,0
2017-09-10T08:18:18.902Z,0
2017-09-10T08:19:19.735Z,0
2017-09-10T08:20:20.373Z,0
2017-09-10T08:21:21.009Z,0
2017-09-10T08:22:21.644Z,0
2017-09-10T08:23:22.278Z,0
2017-09-10T08:24:22.947Z,0
2017-09-10T08:25:23.553Z,0
2017-09-10T08:26:24.186Z,0
2017-09-10T08:27:24.971Z,0
2017-09-10T08:28:25.617Z,0
2017-09-10T08:29:26.242Z,0
2017-09-10T08:30:26.880Z,0
2017-09-10T08:31:27.518Z,0
2017-09-10T08:32:28.151Z,0
2017-09-10T08:33:28.786Z,0
2017-09-10T08:34:29.420Z,0
2017-09-10T08:35:30.055Z,0
2017-09-10T08:36:30.892Z,0
2017-09-10T08:37:31.527Z,0
2017-09-10T08:38:32.164Z,0
2017-09-10T08:39:32.797Z,0
2017-09-10T08:40:33.434Z,4
2017-09-10T08:41:34.071Z,4
2017-09-10T08:42:34.713Z,4
2017-09-10T08:43:35.342Z,4
2017-09-10T08:44:36.182Z,4
2017-09-10T08:45:36.819Z,4
2017-09-10T08:46:37.455Z,4
2017-09-10T08:47:38.088Z,4
2017-09-10T08:48:38.723Z,4
2017-09-10T08:49:39.360Z,4
2017-09-10T08:50:39.996Z,4
2017-09-10T08:51:40.635Z,4
2017-09-10T08:52:41.471Z,4
2017-09-10T08:53:42.105Z,4
2017-09-10T08:54:42.740Z,4
2017-09-10T08:55:43.374Z,4
2017-09-10T08:56:44.012Z,4
2017-09-10T08:57:44.645Z,4
2017-09-10T08:58:45.284Z,4
2017-09-10T08:59:45.917Z,4
2017-09-10T09:00:46.904Z,4
2017-09-10T09:01:47.540Z,4
2017-09-10T09:02:48.175Z,4
2017-09-10T09:03:48.862Z,4
2017-09-10T09:04:49.499Z,4
2017-09-10T09:05:50.134Z,4
2017-09-10T09:06:50.769Z,4
2017-09-10T09:07:51.406Z,4
2017-09-10T09:08:52.040Z,4
2017-09-10T09:09:52.876Z,4
2017-09-10T09:10:53.514Z,4
2017-09-10T09:11:54.148Z,4
2017-09-10T09:12:54.786Z,4
2017-09-10T09:13:55.425Z,12
2017-09-10T09:14:56.063Z,24
2017-09-10T09:15:56.697Z,24
2017-09-10T09:16:57.333Z,24
2017-09-10T09:17:58.271Z,24
2017-09-10T09:18:58.910Z,24
2017-09-10T09:19:59.548Z,24
2017-09-10T09:21:00.241Z,24
2017-09-10T09:22:00.876Z,24
2017-09-10T09:23:01.516Z,24
2017-09-10T09:24:02.153Z,24
2017-09-10T09:25:02.790Z,24
2017-09-10T09:26:03.577Z,24
2017-09-10T09:27:04.217Z,24
2017-09-10T09:28:04.857Z,24
2017-09-10T09:29:05.491Z,24
2017-09-10T09:30:06.129Z,24
2017-09-10T09:31:06.764Z,24
2017-09-10T09:32:07.405Z,20
2017-09-10T09:33:09.036Z,24
2017-09-10T09:34:09.876Z,24
2017-09-10T09:35:10.512Z,24
2017-09-10T09:36:11.150Z,24
2017-09-10T09:37:11.786Z,24
2017-09-10T09:38:12.429Z,24
2017-09-10T09:39:13.061Z,24
2017-09-10T09:40:13.696Z,24
2017-09-10T09:41:14.335Z,24
2017-09-10T09:42:15.275Z,24
2017-09-10T09:43:15.910Z,24
2017-09-10T09:44:16.500Z,24
2017-09-10T09:45:17.136Z,24
2017-09-10T09:46:17.773Z,24
2017-09-10T09:47:18.413Z,24
2017-09-10T09:48:19.047Z,24
2017-09-10T09:49:19.684Z,24
2017-09-10T09:50:20.324Z,20
2017-09-10T09:51:21.162Z,24
2017-09-10T09:52:21.800Z,24
2017-09-10T09:53:22.437Z,24
2017-09-10T09:54:23.077Z,24
2017-09-10T09:55:23.711Z,24
2017-09-10T09:56:24.349Z,24
2017-09-10T09:57:24.985Z,24
2017-09-10T09:58:25.623Z,24
2017-09-10T09:59:26.413Z,24
2017-09-10T10:00:27.052Z,24
2017-09-10T10:01:27.688Z,24
2017-09-10T10:02:28.326Z,24
2017-09-10T10:03:28.964Z,24
2017-09-10T10:04:29.600Z,24
2017-09-10T10:05:30.237Z,24
2017-09-10T10:06:30.876Z,24
2017-09-10T10:07:31.761Z,24
2017-09-10T10:08:32.398Z,24
2017-09-10T10:09:33.035Z,24
2017-09-10T10:10:33.707Z,24
2017-09-10T10:11:34.312Z,24
2017-09-10T10:12:34.950Z,24
2017-09-10T10:13:35.588Z,24
2017-09-10T10:14:36.225Z,24
2017-09-10T10:15:37.012Z,24
2017-09-10T10:16:37.656Z,24
2017-09-10T10:17:38.291Z,24
2017-09-10T10:18:38.925Z,24
2017-09-10T10:19:39.563Z,24
2017-09-10T10:20:40.200Z,24
2017-09-10T10:21:41.137Z,24
2017-09-10T10:22:41.775Z,24
2017-09-10T10:23:42.411Z,24
2017-09-10T10:24:43.049Z,24
2017-09-10T10:25:43.688Z,24
2017-09-10T10:26:44.328Z,24
2017-09-10T10:27:44.960Z,24
2017-09-10T10:28:45.601Z,28
2017-09-10T10:29:46.539Z,28
2017-09-10T10:30:47.183Z,28
2017-09-10T10:31:47.815Z,24
2017-09-10T10:32:48.452Z,24
2017-09-10T10:33:49.089Z,24
2017-09-10T10:34:49.726Z,24
2017-09-10T10:35:50.366Z,24
2017-09-10T10:36:51.000Z,28
2017-09-10T10:37:51.637Z,28
2017-09-10T10:38:52.324Z,28
2017-09-10T10:39:52.961Z,28
2017-09-10T10:40:53.599Z,28
2017-09-10T10:41:54.239Z,28
2017-09-10T10:42:54.873Z,28
2017-09-10T10:43:55.513Z,28
2017-09-10T10:44:56.149Z,28
2017-09-10T10:45:56.788Z,28
2017-09-10T10:46:57.575Z,28
2017-09-10T10:47:58.214Z,28
2017-09-10T10:48:58.853Z,28
2017-09-10T10:49:59.488Z,24
2017-09-10T10:51:00.125Z,28
2017-09-10T10:52:00.762Z,28
2017-09-10T10:53:01.400Z,28
2017-09-10T10:54:02.037Z,28
2017-09-10T10:55:02.875Z,32
2017-09-10T10:56:03.519Z,24
2017-09-10T10:57:04.150Z,28
2017-09-10T10:58:04.789Z,28
2017-09-10T10:59:05.425Z,28
2017-09-10T11:00:06.063Z,28
2017-09-10T11:01:06.698Z,28
2017-09-10T11:02:07.338Z,28
2017-09-10T11:03:08.274Z,28
2017-09-10T11:04:08.911Z,24
2017-09-10T11:05:09.552Z,28
2017-09-10T11:06:10.189Z,28
2017-09-10T11:07:10.827Z,28
2017-09-10T11:08:11.463Z,28
2017-09-10T11:09:12.107Z,28
2017-09-10T11:10:12.740Z,28
2017-09-10T11:11:13.678Z,28
2017-09-10T11:12:14.316Z,28
2017-09-10T11:13:14.955Z,28
2017-09-10T11:14:15.593Z,32
2017-09-10T11:15:16.233Z,32
2017-09-10T11:16:16.877Z,32
2017-09-10T11:17:17.506Z,32
2017-09-10T11:18:18.143Z,32
2017-09-10T11:19:18.781Z,32
2017-09-10T11:20:19.618Z,32
2017-09-10T11:21:20.255Z,28
2017-09-10T11:22:20.894Z,28
2017-09-10T11:23:21.529Z,32
2017-09-10T11:24:22.165Z,28
2017-09-10T11:25:22.802Z,28
2017-09-10T11:26:23.441Z,28
2017-09-10T11:27:24.078Z,28
2017-09-10T11:28:24.863Z,28
2017-09-10T11:29:25.503Z,32
2017-09-10T11:30:26.139Z,28
2017-09-10T11:31:26.777Z,28
2017-09-10T11:32:27.414Z,28
2017-09-10T11:33:28.052Z,28
2017-09-10T11:34:28.691Z,28
2017-09-10T11:35:29.329Z,28
2017-09-10T11:36:30.213Z,28
2017-09-10T11:37:30.855Z,24
2017-09-10T11:38:31.493Z,24
2017-09-10T11:39:32.129Z,24
2017-09-10T11:40:32.764Z,24
2017-09-10T11:41:33.411Z,24
2017-09-10T11:42:34.097Z,28
2017-09-10T11:43:34.739Z,28
2017-09-10T11:44:35.627Z,28
2017-09-10T11:45:36.264Z,28
2017-09-10T11:46:36.900Z,28
2017-09-10T11:47:37.545Z,28
2017-09-10T11:48:38.180Z,28
2017-09-10T11:49:38.815Z,28
2017-09-10T11:50:39.459Z,28
2017-09-10T11:51:40.092Z,28
2017-09-10T11:52:40.734Z,28
2017-09-10T11:53:41.521Z,28
2017-09-10T11:54:42.159Z,28
2017-09-10T11:55:42.796Z,28
2017-09-10T11:56:43.436Z,28
2017-09-10T11:57:44.072Z,28
2017-09-10T11:58:44.710Z,28
2017-09-10T11:59:45.348Z,28
2017-09-10T12:00:45.984Z,28
2017-09-10T12:01:46.923Z,28
2017-09-10T12:02:47.562Z,28
2017-09-10T12:03:48.201Z,28
2017-09-10T12:04:48.838Z,28
2017-09-10T12:05:49.478Z,32
2017-09-10T12:06:50.114Z,32
2017-09-10T12:07:50.754Z,32
2017-09-10T12:08:51.392Z,32
2017-09-10T12:09:52.378Z,32
2017-09-10T12:10:53.014Z,32
2017-09-10T12:11:53.653Z,32
2017-09-10T12:12:54.292Z,32
2017-09-10T12:13:54.978Z,28
2017-09-10T12:14:55.618Z,32
2017-09-10T12:15:56.257Z,32
2017-09-10T12:16:56.892Z,32
2017-09-10T12:17:57.690Z,32
2017-09-10T12:18:58.328Z,32
2017-09-10T12:19:58.955Z,32
2017-09-10T12:20:59.595Z,32
2017-09-10T12:22:00.235Z,32
2017-09-10T12:23:00.871Z,32
2017-09-10T12:24:01.508Z,32
2017-09-10T12:25:02.146Z,36
2017-09-10T12:26:02.786Z,36
2017-09-10T12:27:03.624Z,36
2017-09-10T12:28:04.265Z,32
2017-09-10T12:29:04.902Z,36
2017-09-10T12:30:05.544Z,32
2017-09-10T12:31:06.177Z,32
2017-09-10T12:32:06.815Z,36
2017-09-10T12:33:07.450Z,32
2017-09-10T12:34:08.093Z,32
2017-09-10T12:35:08.932Z,36
2017-09-10T12:36:09.568Z,36
2017-09-10T12:37:10.206Z,32
2017-09-10T12:38:10.845Z,32
2017-09-10T12:39:11.483Z,32
2017-09-10T12:40:12.119Z,32
2017-09-10T12:41:12.758Z,36
2017-09-10T12:42:13.397Z,32
2017-09-10T12:43:14.237Z,32
2017-09-10T12:44:14.875Z,32
2017-09-10T12:45:15.513Z,32
2017-09-10T12:46:16.151Z,36
2017-09-10T12:47:16.788Z,36
2017-09-10T12:48:17.426Z,36
2017-09-10T12:49:18.068Z,32
2017-09-10T12:50:18.706Z,32
2017-09-10T12:51:19.493Z,36
2017-09-10T12:52:20.129Z,32
2017-09-10T12:53:20.768Z,36
2017-09-10T12:54:21.403Z,36
2017-09-10T12:55:22.046Z,36
2017-09-10T12:56:22.680Z,36
2017-09-10T12:57:23.318Z,36
2017-09-10T12:58:23.956Z,36
2017-09-10T12:59:24.844Z,32
2017-09-10T13:00:25.481Z,32
2017-09-10T13:01:26.125Z,36
2017-09-10T13:02:26.757Z,36
2017-09-10T13:03:27.395Z,36
2017-09-10T13:04:28.031Z,36
2017-09-10T13:05:28.669Z,36
2017-09-10T13:06:29.305Z,32
2017-09-10T13:07:29.941Z,36
2017-09-10T13:08:30.778Z,36
2017-09-10T13:09:31.419Z,36
2017-09-10T13:10:32.053Z,36
2017-09-10T13:11:32.693Z,36
2017-09-10T13:12:33.330Z,36
2017-09-10T13:13:33.970Z,36
2017-09-10T13:14:34.606Z,36
2017-09-10T13:15:35.253Z,40
2017-09-10T13:16:36.082Z,36
2017-09-10T13:17:36.720Z,36
2017-09-10T13:18:37.359Z,36
2017-09-10T13:19:37.995Z,36
2017-09-10T13:20:38.636Z,40
2017-09-10T13:21:39.272Z,40
2017-09-10T13:22:39.912Z,36
2017-09-10T13:23:40.546Z,36
2017-09-10T13:24:41.387Z,40
2017-09-10T13:25:42.026Z,40
2017-09-10T13:26:42.666Z,40
2017-09-10T13:27:43.303Z,40
2017-09-10T13:28:43.942Z,40
2017-09-10T13:29:44.582Z,40
2017-09-10T13:30:45.218Z,40
2017-09-10T13:31:45.856Z,44
2017-09-10T13:32:46.694Z,40
2017-09-10T13:33:47.330Z,40
2017-09-10T13:34:47.970Z,44
2017-09-10T13:35:48.610Z,44
2017-09-10T13:36:49.254Z,44
2017-09-10T13:37:49.889Z,44
2017-09-10T13:38:50.526Z,44
2017-09-10T13:39:51.113Z,44
2017-09-10T13:40:51.751Z,44
2017-09-10T13:41:52.591Z,48
2017-09-10T13:42:53.228Z,44
2017-09-10T13:43:53.870Z,44
2017-09-10T13:44:54.506Z,44
2017-09-10T13:45:55.145Z,48
2017-09-10T13:46:55.781Z,44
2017-09-10T13:47:56.422Z,48
2017-09-10T13:48:57.060Z,48
2017-09-10T13:49:57.901Z,48
2017-09-10T13:50:58.541Z,48
2017-09-10T13:51:59.179Z,48
2017-09-10T13:52:59.816Z,52
2017-09-10T13:54:00.453Z,48
2017-09-10T13:55:01.088Z,52
2017-09-10T13:56:01.728Z,48
2017-09-10T13:57:02.365Z,48
2017-09-10T13:58:03.154Z,52
2017-09-10T13:59:03.791Z,52
2017-09-10T14:00:04.431Z,48
2017-09-10T14:01:05.076Z,52
2017-09-10T14:02:05.704Z,52
2017-09-10T14:03:06.343Z,52
2017-09-10T14:04:06.985Z,52
2017-09-10T14:05:07.669Z,52
2017-09-10T14:06:08.505Z,52
2017-09-10T14:07:09.146Z,56
2017-09-10T14:08:09.791Z,56
2017-09-10T14:09:10.422Z,56
2017-09-10T14:10:11.060Z,56
2017-09-10T14:11:11.699Z,56
2017-09-10T14:12:12.337Z,60
2017-09-10T14:13:12.974Z,52
2017-09-10T14:14:13.762Z,52
2017-09-10T14:15:14.398Z,60
2017-09-10T14:16:15.039Z,60
2017-09-10T14:17:15.678Z,60
2017-09-10T14:18:16.316Z,60
2017-09-10T14:19:16.953Z,56
2017-09-10T14:20:17.591Z,64
2017-09-10T14:21:18.227Z,64
2017-09-10T14:22:18.866Z,64
2017-09-10T14:23:19.705Z,64
2017-09-10T14:24:20.342Z,60
2017-09-10T14:25:20.984Z,64
2017-09-10T14:26:21.622Z,64
2017-09-10T14:27:22.258Z,64
2017-09-10T14:28:22.900Z,64
2017-09-10T14:29:23.535Z,64
2017-09-10T14:30:24.175Z,68
2017-09-10T14:31:25.011Z,68
2017-09-10T14:32:25.648Z,64
2017-09-10T14:33:26.286Z,68
2017-09-10T14:34:26.924Z,68
2017-09-10T14:35:27.560Z,68
2017-09-10T14:36:28.200Z,72
2017-09-10T14:37:28.840Z,68
2017-09-10T14:38:29.480Z,68
2017-09-10T14:39:30.320Z,72
2017-09-10T14:40:30.955Z,72
2017-09-10T14:41:31.594Z,72
2017-09-10T14:42:32.234Z,72
2017-09-10T14:43:32.870Z,68
2017-09-10T14:44:33.507Z,68
2017-09-10T14:45:34.149Z,72